createdAt,value
2017-11-28T00:00:54.181Z,0.00
2017-11-28T00:01:54.169Z,0.00
2017-11-28T00:02:54.154Z,0.00
2017-11-28T00:03:54.141Z,0.00
2017-11-28T00:04:54.127Z,0.00
2017-11-28T00:05:54.112Z,0.00
2017-11-28T00:06:54.098Z,0.00
2017-11-28T00:07:54.083Z,0.00
2017-11-28T00:08:54.070Z,0.00
2017-11-28T00:09:54.056Z,0.00
2017-11-28T00:10:54.040Z,0.00
2017-11-28T00:11:54.027Z,0.00
2017-11-28T00:12:54.013Z,0.00
2017-11-28T00:13:54.003Z,0.00
2017-11-28T00:14:53.989Z,0.00
2017-11-28T00:15:53.971Z,0.00
2017-11-28T00:16:53.958Z,0.00
2017-11-28T00:17:53.946Z,0.00
2017-11-28T00:18:53.928Z,0.00
2017-11-28T00:19:53.919Z,0.00
2017-11-28T00:20:53.902Z,0.00
2017-11-28T00:21:53.888Z,0.00
2017-11-28T00:22:53.873Z,0.00
2017-11-28T00:23:53.859Z,0.00
2017-11-28T00:24:53.845Z,0.00
2017-11-28T00:25:53.832Z,0.00
2017-11-28T00:26:53.817Z,0.00
2017-11-28T00:27:53.802Z,0.00
2017-11-28T00:28:53.789Z,0.00
2017-11-28T00:29:53.778Z,0.00
2017-11-28T00:30:53.761Z,0.00
2017-11-28T00:31:53.746Z,0.00
2017-11-28T00:32:53.733Z,0.00
2017-11-28T00:33:53.718Z,0.00
2017-11-28T00:34:53.704Z,0.00
2017-11-28T00:35:53.688Z,0.00
2017-11-28T00:36:53.679Z,0.00
2017-11-28T00:37:53.662Z,0.00
2017-11-28T00:38:53.645Z,0.00
2017-11-28T00:39:53.633Z,0.00
2017-11-28T00:40:53.623Z,0.00
2017-11-28T00:41:53.605Z,0.00
2017-11-28T00:42:53.588Z,0.00
2017-11-28T00:43:53.576Z,0.00
2017-11-28T00:44:53.562Z,0.00
2017-11-28T00:45:53.548Z,0.00
2017-11-28T00:46:53.533Z,0.00
2017-11-28T00:47:53.519Z,0.00
2017-11-28T00:48:53.504Z,0.00
2017-11-28T00:49:53.491Z,0.00
2017-11-28T00:50:53.476Z,0.00
2017-11-28T00:51:53.460Z,0.00
2017-11-28T00:52:53.447Z,0.00
2017-11-28T00:53:53.432Z,0.00
2017-11-28T00:54:53.418Z,0.00
2017-11-28T00:55:53.406Z,0.00
2017-11-28T00:56:53.390Z,0.00
2017-11-28T00:57:53.375Z,0.00
2017-11-28T00:58:53.360Z,0.00
2017-11-28T00:59:53.346Z,0.00
2017-11-28T01:00:53.333Z,0.00
2017-11-28T01:01:53.318Z,0.00
2017-11-28T01:02:53.302Z,0.00
2017-11-28T01:03:53.291Z,0.00
2017-11-28T01:04:53.275Z,0.00
2017-11-28T01:05:53.260Z,0.00
2017-11-28T01:06:53.245Z,0.00
2017-11-28T01:07:53.231Z,0.00
2017-11-28T01:08:53.217Z,0.00
2017-11-28T01:09:53.204Z,0.00
2017-11-28T01:10:53.190Z,0.00
2017-11-28T01:11:53.174Z,0.00
2017-11-28T01:12:53.158Z,0.00
2017-11-28T01:13:53.145Z,0.00
2017-11-28T01:14:53.129Z,0.00
2017-11-28T01:15:53.122Z,0.00
2017-11-28T01:16:53.100Z,0.00
2017-11-28T01:17:53.086Z,0.00
2017-11-28T01:18:53.072Z,0.00
2017-11-28T01:19:53.058Z,0.00
2017-11-28T01:20:53.043Z,0.00
2017-11-28T01:21:53.030Z,0.00
2017-11-28T01:22:53.014Z,0.00
2017-11-28T01:23:52.999Z,0.00
2017-11-28T01:24:52.985Z,0.00
2017-11-28T01:25:52.972Z,0.00
2017-11-28T01:26:52.956Z,0.00
2017-11-28T01:27:52.948Z,0.00
2017-11-28T01:28:52.928Z,0.00
2017-11-28T01:29:52.913Z,0.00
2017-11-28T01:30:52.897Z,0.00
2017-11-28T01:31:52.885Z,0.00
2017-11-28T01:32:52.869Z,0.00
2017-11-28T01:33:52.855Z,0.00
2017-11-28T01:34:52.842Z,0.00
2017-11-28T01:35:52.825Z,0.00
2017-11-28T01:36:52.810Z,0.00
2017-11-28T01:37:52.797Z,0.00
2017-11-28T01:38:52.783Z,0.00
2017-11-28T01:39:52.767Z,0.00
2017-11-28T01:40:52.755Z,0.00
2017-11-28T01:41:52.739Z,0.00
2017-11-28T01:42:52.727Z,0.00
2017-11-28T01:43:52.709Z,0.00
2017-11-28T01:44:52.695Z,0.00
2017-11-28T01:45:52.680Z,0.00
2017-11-28T01:46:52.665Z,0.00
2017-11-28T01:47:52.650Z,0.00
2017-11-28T01:48:52.637Z,0.00
2017-11-28T01:49:52.622Z,0.00
2017-11-28T01:50:52.607Z,0.00
2017-11-28T01:51:52.592Z,0.00
2017-11-28T01:52:52.578Z,0.00
2017-11-28T01:53:52.564Z,0.00
2017-11-28T01:54:52.549Z,0.00
2017-11-28T01:55:52.532Z,0.00
2017-11-28T01:56:52.519Z,0.00
2017-11-28T01:57:52.504Z,0.00
2017-11-28T01:58:52.489Z,0.00
2017-11-28T01:59:52.475Z,0.00
2017-11-28T02:00:52.460Z,0.00
2017-11-28T02:01:52.447Z,0.00
2017-11-28T02:02:52.433Z,0.00
2017-11-28T02:03:52.417Z,0.00
2017-11-28T02:04:52.403Z,0.00
2017-11-28T02:05:52.388Z,0.00
2017-11-28T02:06:52.372Z,0.00
2017-11-28T02:07:52.359Z,0.00
2017-11-28T02:08:52.345Z,0.00
2017-11-28T02:09:52.330Z,0.00
2017-11-28T02:10:52.315Z,0.00
2017-11-28T02:11:52.300Z,0.00
2017-11-28T02:12:52.286Z,0.00
2017-11-28T02:13:52.272Z,0.00
2017-11-28T02:14:52.262Z,0.00
2017-11-28T02:15:52.242Z,0.00
2017-11-28T02:16:52.228Z,0.00
2017-11-28T02:17:52.212Z,0.00
2017-11-28T02:18:52.197Z,0.00
2017-11-28T02:19:52.184Z,0.00
2017-11-28T02:20:52.171Z,0.00
2017-11-28T02:21:52.159Z,0.00
2017-11-28T02:22:52.139Z,0.00
2017-11-28T02:23:52.126Z,0.00
2017-11-28T02:24:52.119Z,0.00
2017-11-28T02:25:52.097Z,0.00
2017-11-28T02:26:52.083Z,0.00
2017-11-28T02:27:52.081Z,0.00
2017-11-28T02:28:52.052Z,0.00
2017-11-28T02:29:52.037Z,0.00
2017-11-28T02:30:52.022Z,0.00
2017-11-28T02:31:52.014Z,0.00
2017-11-28T02:32:51.993Z,0.00
2017-11-28T02:33:51.978Z,0.00
2017-11-28T02:34:51.965Z,0.00
2017-11-28T02:35:51.949Z,0.00
2017-11-28T02:36:51.934Z,0.00
2017-11-28T02:37:51.921Z,0.00
2017-11-28T02:38:51.986Z,0.00
2017-11-28T02:39:51.889Z,0.00
2017-11-28T02:40:51.876Z,0.00
2017-11-28T02:41:51.861Z,0.00
2017-11-28T02:42:51.846Z,0.00
2017-11-28T02:43:51.836Z,0.00
2017-11-28T02:44:51.814Z,0.00
2017-11-28T02:45:51.801Z,0.00
2017-11-28T02:46:51.794Z,0.00
2017-11-28T02:47:51.777Z,0.00
2017-11-28T02:48:51.756Z,0.00
2017-11-28T02:49:51.742Z,0.00
2017-11-28T02:50:51.728Z,0.00
2017-11-28T02:51:51.713Z,0.00
2017-11-28T02:52:51.698Z,0.00
2017-11-28T02:53:51.684Z,0.00
2017-11-28T02:54:51.694Z,0.00
2017-11-28T02:55:51.654Z,0.00
2017-11-28T02:56:51.639Z,0.00
2017-11-28T02:57:51.629Z,0.00
2017-11-28T02:58:51.609Z,0.00
2017-11-28T02:59:51.593Z,0.00
2017-11-28T03:00:51.579Z,0.00
2017-11-28T03:01:51.565Z,0.00
2017-11-28T03:02:51.549Z,0.00
2017-11-28T03:03:51.534Z,0.00
2017-11-28T03:04:51.520Z,0.00
2017-11-28T03:05:51.505Z,0.00
2017-11-28T03:06:51.489Z,0.00
2017-11-28T03:07:51.475Z,0.00
2017-11-28T03:08:51.461Z,0.00
2017-11-28T03:09:51.445Z,0.00
2017-11-28T03:10:51.430Z,0.00
2017-11-28T03:11:51.416Z,0.00
2017-11-28T03:12:51.400Z,0.00
2017-11-28T03:13:51.385Z,0.00
2017-11-28T03:14:51.369Z,0.00
2017-11-28T03:15:51.357Z,0.00
2017-11-28T03:16:51.342Z,0.00
2017-11-28T03:17:51.327Z,0.00
2017-11-28T03:18:51.311Z,0.00
2017-11-28T03:19:51.296Z,0.00
2017-11-28T03:20:51.286Z,0.00
2017-11-28T03:21:51.266Z,0.00
2017-11-28T03:22:51.250Z,0.00
2017-11-28T03:23:51.237Z,0.00
2017-11-28T03:24:51.222Z,0.00
2017-11-28T03:25:51.206Z,0.00
2017-11-28T03:26:51.192Z,0.00
2017-11-28T03:27:51.176Z,0.00
2017-11-28T03:28:51.162Z,0.00
2017-11-28T03:29:51.148Z,0.00
2017-11-28T03:30:51.142Z,0.00
2017-11-28T03:31:51.116Z,0.00
2017-11-28T03:32:51.103Z,0.00
2017-11-28T03:33:51.090Z,0.00
2017-11-28T03:34:51.072Z,0.00
2017-11-28T03:35:51.058Z,0.00
2017-11-28T03:36:51.043Z,0.00
2017-11-28T03:37:51.029Z,0.00
2017-11-28T03:38:51.017Z,0.00
2017-11-28T03:39:51.001Z,0.00
2017-11-28T03:40:50.983Z,0.00
2017-11-28T03:41:50.967Z,0.00
2017-11-28T03:42:50.952Z,0.00
2017-11-28T03:43:50.946Z,0.00
2017-11-28T03:44:50.924Z,0.00
2017-11-28T03:45:50.914Z,0.00
2017-11-28T03:46:50.894Z,0.00
2017-11-28T03:47:50.887Z,0.00
2017-11-28T03:48:50.867Z,0.00
2017-11-28T03:49:50.852Z,0.00
2017-11-28T03:50:50.836Z,0.00
2017-11-28T03:51:50.818Z,0.00
2017-11-28T03:52:50.808Z,0.00
2017-11-28T03:53:50.787Z,0.00
2017-11-28T03:54:50.772Z,0.00
2017-11-28T03:55:50.758Z,0.00
2017-11-28T03:56:50.745Z,0.00
2017-11-28T03:57:50.729Z,0.00
2017-11-28T03:58:50.713Z,0.00
2017-11-28T03:59:50.699Z,0.00
2017-11-28T04:00:50.684Z,0.00
2017-11-28T04:01:50.669Z,0.00
2017-11-28T04:02:50.652Z,0.00
2017-11-28T04:03:50.639Z,0.00
2017-11-28T04:04:50.624Z,0.00
2017-11-28T04:05:50.613Z,0.00
2017-11-28T04:06:50.593Z,0.00
2017-11-28T04:07:50.585Z,0.00
2017-11-28T04:08:50.565Z,0.00
2017-11-28T04:09:50.551Z,0.00
2017-11-28T04:10:50.535Z,0.00
2017-11-28T04:11:50.522Z,0.00
2017-11-28T04:12:50.507Z,0.00
2017-11-28T04:13:50.493Z,0.00
2017-11-28T04:14:50.478Z,0.00
2017-11-28T04:15:50.462Z,0.00
2017-11-28T04:16:50.449Z,0.00
2017-11-28T04:17:50.434Z,0.00
2017-11-28T04:18:50.418Z,0.00
2017-11-28T04:19:50.403Z,0.00
2017-11-28T04:20:50.390Z,0.00
2017-11-28T04:21:50.379Z,0.00
2017-11-28T04:22:50.361Z,0.00
2017-11-28T04:23:50.347Z,0.00
2017-11-28T04:24:50.338Z,0.00
2017-11-28T04:25:50.318Z,0.00
2017-11-28T04:26:50.301Z,0.00
2017-11-28T04:27:50.289Z,0.00
2017-11-28T04:28:50.274Z,0.00
2017-11-28T04:29:50.259Z,0.00
2017-11-28T04:30:50.245Z,0.00
2017-11-28T04:31:50.232Z,0.00
2017-11-28T04:32:50.216Z,0.00
2017-11-28T04:33:50.210Z,0.00
2017-11-28T04:34:50.187Z,0.00
2017-11-28T04:35:50.174Z,0.00
2017-11-28T04:36:50.158Z,0.00
2017-11-28T04:37:50.146Z,0.00
2017-11-28T04:38:50.130Z,0.00
2017-11-28T04:39:50.116Z,0.00
2017-11-28T04:40:50.102Z,0.00
2017-11-28T04:41:50.086Z,0.00
2017-11-28T04:42:50.073Z,0.00
2017-11-28T04:43:50.059Z,0.00
2017-11-28T04:44:50.045Z,0.00
2017-11-28T04:45:50.031Z,0.00
2017-11-28T04:46:50.016Z,0.00
2017-11-28T04:47:50.001Z,0.00
2017-11-28T04:48:49.987Z,0.00
2017-11-28T04:49:49.973Z,0.00
2017-11-28T04:50:49.959Z,0.00
2017-11-28T04:51:49.945Z,0.00
2017-11-28T04:52:49.931Z,0.00
2017-11-28T04:53:49.916Z,0.00
2017-11-28T04:54:49.901Z,0.00
2017-11-28T04:55:49.887Z,0.00
2017-11-28T04:56:49.874Z,0.00
2017-11-28T04:57:49.865Z,0.00
2017-11-28T04:58:49.846Z,0.00
2017-11-28T04:59:49.832Z,0.00
2017-11-28T05:00:49.816Z,0.00
2017-11-28T05:01:49.802Z,0.00
2017-11-28T05:02:49.788Z,0.00
2017-11-28T05:03:49.783Z,0.00
2017-11-28T05:04:49.759Z,0.00
2017-11-28T05:05:49.746Z,0.00
2017-11-28T05:06:49.732Z,0.00
2017-11-28T05:07:49.718Z,0.00
2017-11-28T05:08:49.703Z,0.00
2017-11-28T05:09:49.696Z,0.00
2017-11-28T05:10:49.681Z,0.00
2017-11-28T05:11:49.662Z,0.00
2017-11-28T05:12:49.650Z,0.00
2017-11-28T05:13:49.634Z,0.00
2017-11-28T05:14:49.620Z,0.00
2017-11-28T05:15:49.608Z,0.00
2017-11-28T05:16:49.591Z,0.00
2017-11-28T05:17:49.578Z,0.00
2017-11-28T05:18:49.564Z,0.00
2017-11-28T05:19:49.549Z,0.00
2017-11-28T05:20:49.536Z,0.00
2017-11-28T05:21:49.526Z,0.00
2017-11-28T05:22:49.506Z,0.00
2017-11-28T05:23:49.493Z,0.00
2017-11-28T05:24:49.478Z,0.00
2017-11-28T05:25:49.464Z,0.00
2017-11-28T05:26:49.449Z,0.00
2017-11-28T05:27:49.437Z,0.00
2017-11-28T05:28:49.422Z,0.00
2017-11-28T05:29:49.409Z,0.00
2017-11-28T05:30:49.393Z,0.00
2017-11-28T05:31:49.380Z,0.00
2017-11-28T05:32:49.366Z,0.00
2017-11-28T05:33:49.367Z,0.00
2017-11-28T05:34:49.335Z,0.00
2017-11-28T05:35:49.323Z,0.00
2017-11-28T05:36:49.308Z,0.00
2017-11-28T05:37:49.298Z,0.00
2017-11-28T05:38:49.282Z,0.00
2017-11-28T05:39:49.266Z,0.00
2017-11-28T05:40:49.253Z,0.00
2017-11-28T05:41:49.246Z,0.00
2017-11-28T05:42:49.224Z,0.00
2017-11-28T05:43:49.211Z,0.00
2017-11-28T05:44:49.197Z,0.00
2017-11-28T05:45:49.182Z,0.00
2017-11-28T05:46:49.168Z,0.00
2017-11-28T05:47:49.153Z,0.00
2017-11-28T05:48:49.149Z,0.00
2017-11-28T05:49:49.128Z,0.00
2017-11-28T05:50:49.115Z,0.00
2017-11-28T05:51:49.098Z,0.00
2017-11-28T05:52:49.085Z,0.00
2017-11-28T05:53:49.069Z,0.00
2017-11-28T05:54:49.054Z,0.00
2017-11-28T05:55:49.041Z,0.00
2017-11-28T05:56:49.027Z,0.00
2017-11-28T05:57:49.014Z,0.00
2017-11-28T05:58:49.002Z,0.00
2017-11-28T05:59:48.984Z,0.00
2017-11-28T06:00:48.973Z,0.00
2017-11-28T06:01:48.957Z,0.00
2017-11-28T06:02:48.942Z,0.00
2017-11-28T06:03:48.939Z,0.00
2017-11-28T06:04:48.915Z,0.00
2017-11-28T06:05:48.902Z,0.00
2017-11-28T06:06:48.893Z,0.00
2017-11-28T06:07:48.874Z,0.00
2017-11-28T06:08:48.859Z,0.00
2017-11-28T06:09:48.848Z,0.00
2017-11-28T06:10:48.830Z,0.00
2017-11-28T06:11:48.821Z,0.00
2017-11-28T06:12:48.803Z,0.00
2017-11-28T06:13:48.790Z,0.00
2017-11-28T06:14:48.776Z,0.00
2017-11-28T06:15:48.761Z,0.00
2017-11-28T06:16:48.748Z,0.00
2017-11-28T06:17:48.734Z,0.00
2017-11-28T06:18:48.726Z,0.00
2017-11-28T06:19:48.708Z,0.00
2017-11-28T06:20:48.691Z,0.00
2017-11-28T06:21:48.678Z,0.00
2017-11-28T06:22:48.667Z,0.00
2017-11-28T06:23:48.649Z,0.00
2017-11-28T06:24:48.636Z,0.00
2017-11-28T06:25:48.624Z,0.00
2017-11-28T06:26:48.606Z,0.00
2017-11-28T06:27:48.595Z,0.00
2017-11-28T06:28:48.583Z,0.00
2017-11-28T06:29:48.565Z,0.00
2017-11-28T06:30:48.552Z,0.00
2017-11-28T06:31:48.539Z,0.00
2017-11-28T06:32:48.523Z,0.00
2017-11-28T06:33:48.510Z,0.00
2017-11-28T06:34:48.495Z,0.00
2017-11-28T06:35:48.481Z,0.00
2017-11-28T06:36:48.467Z,0.00
2017-11-28T06:37:48.454Z,0.00
2017-11-28T06:38:48.443Z,0.00
2017-11-28T06:39:48.436Z,0.00
2017-11-28T06:40:48.412Z,8.00
2017-11-28T06:41:48.399Z,0.00
2017-11-28T06:42:48.386Z,0.00
2017-11-28T06:43:48.373Z,0.00
2017-11-28T06:44:48.357Z,0.00
2017-11-28T06:45:48.345Z,0.00
2017-11-28T06:46:48.330Z,0.00
2017-11-28T06:47:48.314Z,4.00
2017-11-28T06:48:48.302Z,4.00
2017-11-28T06:49:48.288Z,4.00
2017-11-28T06:50:48.272Z,4.00
2017-11-28T06:51:48.259Z,4.00
2017-11-28T06:52:48.245Z,4.00
2017-11-28T06:53:48.232Z,4.00
2017-11-28T06:54:48.217Z,8.00
2017-11-28T06:55:48.204Z,8.00
2017-11-28T06:56:48.190Z,8.00
2017-11-28T06:57:48.176Z,8.00
2017-11-28T06:58:48.162Z,12.00
2017-11-28T06:59:48.147Z,16.00
2017-11-28T07:00:48.134Z,16.00
2017-11-28T07:01:48.120Z,20.00
2017-11-28T07:02:48.105Z,20.00
2017-11-28T07:03:48.096Z,24.00
2017-11-28T07:04:48.078Z,24.00
2017-11-28T07:05:48.065Z,32.00
2017-11-28T07:06:48.050Z,32.00
2017-11-28T07:07:48.035Z,36.00
2017-11-28T07:08:48.021Z,40.00
2017-11-28T07:09:48.008Z,44.00
2017-11-28T07:10:47.994Z,52.00
2017-11-28T07:11:47.979Z,56.00
2017-11-28T07:12:47.965Z,60.00
2017-11-28T07:13:47.955Z,68.00
2017-11-28T07:14:47.953Z,72.00
2017-11-28T07:15:47.923Z,80.00
2017-11-28T07:16:47.910Z,84.00
2017-11-28T07:17:47.897Z,100.00
2017-11-28T07:18:47.882Z,108.00
2017-11-28T07:19:47.868Z,108.00
2017-11-28T07:20:47.853Z,116.00
2017-11-28T07:21:47.839Z,120.00
2017-11-28T07:22:47.824Z,132.00
2017-11-28T07:23:47.812Z,136.00
2017-11-28T07:24:47.797Z,148.00
2017-11-28T07:25:47.784Z,156.00
2017-11-28T07:26:47.770Z,168.00
2017-11-28T07:27:47.755Z,176.00
2017-11-28T07:28:47.742Z,188.00
2017-11-28T07:29:47.728Z,196.00
2017-11-28T07:30:47.718Z,212.00
2017-11-28T07:31:47.699Z,236.00
2017-11-28T07:32:47.685Z,272.00
2017-11-28T07:33:47.673Z,264.00
2017-11-28T07:34:47.656Z,264.00
2017-11-28T07:35:47.643Z,280.00
2017-11-28T07:36:47.630Z,296.00
2017-11-28T07:37:47.615Z,312.00
2017-11-28T07:38:47.599Z,324.00
2017-11-28T07:39:47.587Z,340.00
2017-11-28T07:40:47.574Z,360.00
2017-11-28T07:41:47.559Z,372.00
2017-11-28T07:42:47.544Z,396.00
2017-11-28T07:43:47.531Z,408.00
2017-11-28T07:44:47.529Z,424.00
2017-11-28T07:45:47.507Z,440.00
2017-11-28T07:46:47.495Z,460.00
2017-11-28T07:47:47.475Z,484.00
2017-11-28T07:48:47.460Z,500.00
2017-11-28T07:49:47.447Z,504.00
2017-11-28T07:50:47.433Z,520.00
2017-11-28T07:51:47.418Z,544.00
2017-11-28T07:52:47.405Z,564.00
2017-11-28T07:53:47.391Z,568.00
2017-11-28T07:54:47.377Z,596.00
2017-11-28T07:55:47.363Z,616.00
2017-11-28T07:56:47.352Z,644.00
2017-11-28T07:57:47.353Z,664.00
2017-11-28T07:58:47.321Z,696.00
2017-11-28T07:59:47.308Z,708.00
2017-11-28T08:00:47.294Z,728.00
2017-11-28T08:01:47.279Z,740.00
2017-11-28T08:02:47.265Z,756.00
2017-11-28T08:03:47.251Z,788.00
2017-11-28T08:04:47.239Z,808.00
2017-11-28T08:05:47.224Z,828.00
2017-11-28T08:06:47.213Z,848.00
2017-11-28T08:07:47.196Z,884.00
2017-11-28T08:08:47.182Z,904.00
2017-11-28T08:09:47.174Z,924.00
2017-11-28T08:10:47.155Z,952.00
2017-11-28T08:11:47.141Z,976.00
2017-11-28T08:12:47.128Z,996.00
2017-11-28T08:13:47.120Z,1020.00
2017-11-28T08:14:47.124Z,1036.00
2017-11-28T08:15:47.087Z,1052.00
2017-11-28T08:16:47.073Z,1072.00
2017-11-28T08:17:47.058Z,1096.00
2017-11-28T08:18:47.044Z,1116.00
2017-11-28T08:19:47.031Z,1132.00
2017-11-28T08:20:47.025Z,1156.00
2017-11-28T08:21:47.005Z,1176.00
2017-11-28T08:22:46.990Z,1192.00
2017-11-28T08:23:46.978Z,1220.00
2017-11-28T08:24:46.968Z,1240.00
2017-11-28T08:25:46.952Z,1260.00
2017-11-28T08:26:46.936Z,1276.00
2017-11-28T08:27:46.925Z,1296.00
2017-11-28T08:28:46.909Z,1320.00
2017-11-28T08:29:46.895Z,1344.00
2017-11-28T08:30:46.885Z,1368.00
2017-11-28T08:31:46.869Z,1428.00
2017-11-28T08:32:46.856Z,1484.00
2017-11-28T08:33:46.842Z,1480.00
2017-11-28T08:34:46.828Z,1492.00
2017-11-28T08:35:46.816Z,1544.00
2017-11-28T08:36:46.801Z,1636.00
2017-11-28T08:37:46.788Z,1652.00
2017-11-28T08:38:46.774Z,1572.00
2017-11-28T08:39:46.761Z,1608.00
2017-11-28T08:40:46.747Z,1716.00
2017-11-28T08:41:46.734Z,1924.00
2017-11-28T08:42:46.720Z,2160.00
2017-11-28T08:43:46.722Z,2224.00
2017-11-28T08:44:46.696Z,2068.00
2017-11-28T08:45:46.681Z,1800.00
2017-11-28T08:46:46.668Z,1600.00
2017-11-28T08:47:46.666Z,1536.00
2017-11-28T08:48:46.643Z,1408.00
2017-11-28T08:49:46.629Z,1292.00
2017-11-28T08:50:46.614Z,1148.00
2017-11-28T08:51:46.602Z,1124.00
2017-11-28T08:52:46.592Z,1136.00
2017-11-28T08:53:46.576Z,1228.00
2017-11-28T08:54:46.563Z,1188.00
2017-11-28T08:55:46.549Z,1184.00
2017-11-28T08:56:46.537Z,1244.00
2017-11-28T08:57:46.523Z,1360.00
2017-11-28T08:58:46.510Z,1704.00
2017-11-28T08:59:46.496Z,1976.00
2017-11-28T09:00:46.484Z,1996.00
2017-11-28T09:01:46.471Z,2348.00
2017-11-28T09:02:46.456Z,3056.00
2017-11-28T09:03:46.444Z,3828.00
2017-11-28T09:04:46.432Z,4200.00
2017-11-28T09:05:46.418Z,4148.00
2017-11-28T09:06:46.404Z,3800.00
2017-11-28T09:07:46.394Z,3440.00
2017-11-28T09:08:46.378Z,3176.00
2017-11-28T09:09:46.365Z,3020.00
2017-11-28T09:10:46.353Z,3048.00
2017-11-28T09:11:46.340Z,3096.00
2017-11-28T09:12:46.326Z,2504.00
2017-11-28T09:13:46.314Z,2332.00
2017-11-28T09:14:46.299Z,2140.00
2017-11-28T09:15:46.289Z,3176.00
2017-11-28T09:16:46.274Z,3604.00
2017-11-28T09:17:46.262Z,2828.00
2017-11-28T09:18:46.248Z,2592.00
2017-11-28T09:19:46.236Z,2408.00
2017-11-28T09:20:46.224Z,2308.00
2017-11-28T09:21:46.211Z,1808.00
2017-11-28T09:22:46.196Z,1996.00
2017-11-28T09:23:46.183Z,1964.00
2017-11-28T09:24:46.172Z,1736.00
2017-11-28T09:25:46.159Z,1612.00
2017-11-28T09:26:46.145Z,1580.00
2017-11-28T09:27:46.132Z,1612.00
2017-11-28T09:28:46.119Z,1532.00
2017-11-28T09:29:46.107Z,1404.00
2017-11-28T09:30:46.092Z,1752.00
2017-11-28T09:31:46.081Z,2072.00
2017-11-28T09:32:46.070Z,2008.00
2017-11-28T09:33:46.055Z,1848.00
2017-11-28T09:34:46.041Z,1924.00
2017-11-28T09:35:46.028Z,2168.00
2017-11-28T09:36:46.015Z,2264.00
2017-11-28T09:37:46.002Z,2384.00
2017-11-28T09:38:45.988Z,2448.00
2017-11-28T09:39:45.976Z,2360.00
2017-11-28T09:40:45.968Z,2120.00
2017-11-28T09:41:45.951Z,2120.00
2017-11-28T09:42:45.937Z,2048.00
2017-11-28T09:43:45.925Z,2004.00
2017-11-28T09:44:45.911Z,2044.00
2017-11-28T09:45:45.898Z,2048.00
2017-11-28T09:46:45.884Z,2020.00
2017-11-28T09:47:45.873Z,1964.00
2017-11-28T09:48:45.859Z,1980.00
2017-11-28T09:49:45.846Z,2056.00
2017-11-28T09:50:45.832Z,2080.00
2017-11-28T09:51:45.820Z,3088.00
2017-11-28T09:52:45.813Z,3180.00
2017-11-28T09:53:45.793Z,3112.00
2017-11-28T09:54:45.780Z,3132.00
2017-11-28T09:55:45.770Z,3140.00
2017-11-28T09:56:45.754Z,3180.00
2017-11-28T09:57:45.741Z,3372.00
2017-11-28T09:58:45.726Z,4292.00
2017-11-28T09:59:45.715Z,5160.00
2017-11-28T10:00:45.702Z,4788.00
2017-11-28T10:01:45.690Z,4288.00
2017-11-28T10:02:45.676Z,4252.00
2017-11-28T10:03:45.662Z,4312.00
2017-11-28T10:04:45.649Z,4228.00
2017-11-28T10:05:45.636Z,4240.00
2017-11-28T10:06:45.622Z,4208.00
2017-11-28T10:07:45.610Z,4432.00
2017-11-28T10:08:45.602Z,4568.00
2017-11-28T10:09:45.585Z,4488.00
2017-11-28T10:10:45.571Z,5820.00
2017-11-28T10:11:45.560Z,6452.00
2017-11-28T10:12:45.547Z,6488.00
2017-11-28T10:13:45.534Z,6312.00
2017-11-28T10:14:45.522Z,6288.00
2017-11-28T10:15:45.513Z,6424.00
2017-11-28T10:16:45.496Z,6360.00
2017-11-28T10:17:45.484Z,5940.00
2017-11-28T10:18:45.470Z,5724.00
2017-11-28T10:19:45.457Z,5076.00
2017-11-28T10:20:45.446Z,4492.00
2017-11-28T10:21:45.435Z,4276.00
2017-11-28T10:22:45.420Z,4672.00
2017-11-28T10:23:45.409Z,4840.00
2017-11-28T10:24:45.400Z,3908.00
2017-11-28T10:25:45.385Z,3756.00
2017-11-28T10:26:45.371Z,3356.00
2017-11-28T10:27:45.362Z,3136.00
2017-11-28T10:28:45.355Z,2720.00
2017-11-28T10:29:45.336Z,2944.00
2017-11-28T10:30:45.322Z,3972.00
2017-11-28T10:31:45.311Z,4844.00
2017-11-28T10:32:45.297Z,5368.00
2017-11-28T10:33:45.285Z,4908.00
2017-11-28T10:34:45.281Z,5664.00
2017-11-28T10:35:45.259Z,4932.00
2017-11-28T10:36:45.248Z,4288.00
2017-11-28T10:37:45.235Z,3840.00
2017-11-28T10:38:45.223Z,5200.00
2017-11-28T10:39:45.211Z,5388.00
2017-11-28T10:40:45.198Z,5324.00
2017-11-28T10:41:45.186Z,4888.00
2017-11-28T10:42:45.171Z,5080.00
2017-11-28T10:43:45.160Z,5852.00
2017-11-28T10:44:45.148Z,5504.00
2017-11-28T10:45:45.137Z,5528.00
2017-11-28T10:46:45.122Z,5556.00
2017-11-28T10:47:45.111Z,5896.00
2017-11-28T10:48:45.100Z,6464.00
2017-11-28T10:49:45.087Z,5652.00
2017-11-28T10:50:45.075Z,6204.00
2017-11-28T10:51:45.062Z,6792.00
2017-11-28T10:52:45.050Z,6844.00
2017-11-28T10:53:45.039Z,6656.00
2017-11-28T10:54:45.025Z,7108.00
2017-11-28T10:55:45.013Z,7012.00
2017-11-28T10:56:45.004Z,6412.00
2017-11-28T10:57:44.990Z,7132.00
2017-11-28T10:58:44.977Z,6976.00
2017-11-28T10:59:44.966Z,6744.00
2017-11-28T11:00:44.953Z,7008.00
2017-11-28T11:01:44.945Z,6884.00
2017-11-28T11:02:44.931Z,7672.00
2017-11-28T11:03:44.918Z,7620.00
2017-11-28T11:04:44.905Z,7108.00
2017-11-28T11:05:44.895Z,6788.00
2017-11-28T11:06:44.884Z,6544.00
2017-11-28T11:07:44.872Z,6380.00
2017-11-28T11:08:44.859Z,6276.00
2017-11-28T11:09:44.849Z,5816.00
2017-11-28T11:10:44.842Z,7588.00
2017-11-28T11:11:44.824Z,7420.00
2017-11-28T11:12:44.813Z,6564.00
2017-11-28T11:13:44.803Z,6820.00
2017-11-28T11:14:44.789Z,8008.00
2017-11-28T11:15:44.777Z,7668.00
2017-11-28T11:16:44.768Z,7176.00
2017-11-28T11:17:44.755Z,4124.00
2017-11-28T11:18:44.745Z,3304.00
2017-11-28T11:19:44.732Z,2884.00
2017-11-28T11:20:44.719Z,2892.00
2017-11-28T11:21:44.713Z,3744.00
2017-11-28T11:22:44.696Z,4776.00
2017-11-28T11:23:44.684Z,5000.00
2017-11-28T11:24:44.675Z,6920.00
2017-11-28T11:25:44.663Z,7236.00
2017-11-28T11:26:44.649Z,7552.00
2017-11-28T11:27:44.644Z,7228.00
2017-11-28T11:28:44.633Z,7420.00
2017-11-28T11:29:44.625Z,7600.00
2017-11-28T11:30:44.604Z,7568.00
2017-11-28T11:31:44.596Z,8120.00
2017-11-28T11:32:44.581Z,8724.00
2017-11-28T11:33:44.570Z,8816.00
2017-11-28T11:34:44.557Z,8888.00
2017-11-28T11:35:44.546Z,8768.00
2017-11-28T11:36:44.535Z,8652.00
2017-11-28T11:37:44.524Z,8672.00
2017-11-28T11:38:44.513Z,8388.00
2017-11-28T11:39:44.500Z,8388.00
2017-11-28T11:40:44.496Z,8336.00
2017-11-28T11:41:44.479Z,8944.00
2017-11-28T11:42:44.471Z,9208.00
2017-11-28T11:43:44.456Z,8436.00
2017-11-28T11:44:44.444Z,7608.00
2017-11-28T11:45:44.434Z,6580.00
2017-11-28T11:46:44.423Z,5916.00
2017-11-28T11:47:44.411Z,3928.00
2017-11-28T11:48:44.401Z,5396.00
2017-11-28T11:49:44.390Z,5224.00
2017-11-28T11:50:44.378Z,5312.00
2017-11-28T11:51:44.366Z,5284.00
2017-11-28T11:52:44.356Z,5536.00
2017-11-28T11:53:44.345Z,6080.00
2017-11-28T11:54:44.333Z,6432.00
2017-11-28T11:55:44.325Z,7004.00
2017-11-28T11:56:44.312Z,7568.00
2017-11-28T11:57:44.302Z,7796.00
2017-11-28T11:58:44.288Z,8540.00
2017-11-28T11:59:44.281Z,8468.00
2017-11-28T12:00:44.269Z,7472.00
2017-11-28T12:01:44.255Z,5452.00
2017-11-28T12:02:44.245Z,5412.00
2017-11-28T12:03:44.232Z,6700.00
2017-11-28T12:04:44.222Z,6600.00
2017-11-28T12:05:44.212Z,7744.00
2017-11-28T12:06:44.202Z,5356.00
2017-11-28T12:07:44.192Z,4300.00
2017-11-28T12:08:44.179Z,4628.00
2017-11-28T12:09:44.167Z,4932.00
2017-11-28T12:10:44.155Z,6196.00
2017-11-28T12:11:44.147Z,4912.00
2017-11-28T12:12:44.135Z,6552.00
2017-11-28T12:13:44.123Z,6400.00
2017-11-28T12:14:44.113Z,5948.00
2017-11-28T12:15:44.100Z,5420.00
2017-11-28T12:16:44.090Z,5616.00
2017-11-28T12:17:44.079Z,6572.00
2017-11-28T12:18:44.066Z,5852.00
2017-11-28T12:19:44.055Z,3912.00
2017-11-28T12:20:44.046Z,3532.00
2017-11-28T12:21:44.034Z,4064.00
2017-11-28T12:22:44.023Z,4848.00
2017-11-28T12:23:44.016Z,6440.00
2017-11-28T12:24:44.000Z,6076.00
2017-11-28T12:25:43.990Z,5076.00
2017-11-28T12:26:43.985Z,7008.00
2017-11-28T12:27:43.967Z,6240.00
2017-11-28T12:28:43.955Z,6308.00
2017-11-28T12:29:43.945Z,6588.00
2017-11-28T12:30:43.934Z,8008.00
2017-11-28T12:31:43.921Z,6536.00
2017-11-28T12:32:43.919Z,5600.00
2017-11-28T12:33:43.899Z,7284.00
2017-11-28T12:34:43.894Z,7428.00
2017-11-28T12:35:43.877Z,6940.00
2017-11-28T12:36:43.864Z,7276.00
2017-11-28T12:37:43.856Z,7812.00
2017-11-28T12:38:43.843Z,6656.00
2017-11-28T12:39:43.831Z,7896.00
2017-11-28T12:40:43.821Z,6420.00
2017-11-28T12:41:43.809Z,7844.00
2017-11-28T12:42:43.798Z,4628.00
2017-11-28T12:43:43.794Z,3688.00
2017-11-28T12:44:43.776Z,4768.00
2017-11-28T12:45:43.764Z,5620.00
2017-11-28T12:46:43.754Z,6232.00